Time;durP1;ratioP1;P1;durP2;ratioP2;P2;SDS_P1;SDS_P2;PMS_P1;PMS_P2;Temp;Humidity;BMP_temperature;BMP_pressure;BME280_temperature;BME280_humidity;BME280_pressure;Samples;Min_cycle;Max_cycle;Signal;HPM_P1;HPM_P2
2023/04/16 00:00:38;;;;;;;23.63;12.32;;;7.40;99.90;;;;;;7399181;19;19922;-79
2023/04/16 00:03:07;;;;;;;21.70;11.73;;;7.40;99.90;;;;;;7404023;19;19925;-80
2023/04/16 00:05:36;;;;;;;24.17;12.93;;;7.30;99.90;;;;;;7404282;19;19925;-80
2023/04/16 00:08:07;;;;;;;25.85;12.55;;;7.20;99.90;;;;;;7404835;19;19919;-80
2023/04/16 00:10:37;;;;;;;22.85;11.43;;;8.10;99.90;;;;;;7402927;19;20380;-79
2023/04/16 00:13:06;;;;;;;29.30;12.75;;;7.30;99.90;;;;;;7402848;19;19918;-79
2023/04/16 00:15:35;;;;;;;27.50;13.55;;;7.40;99.90;;;;;;7403711;19;19923;-79
2023/04/16 00:18:03;;;;;;;24.40;12.70;;;7.30;99.90;;;;;;7403975;19;20267;-79
2023/04/16 00:20:33;;;;;;;22.40;12.05;;;7.50;99.90;;;;;;7396839;19;19986;-79
2023/04/16 00:23:02;;;;;;;25.20;13.80;;;7.10;99.90;;;;;;7398916;19;19934;-80
2023/04/16 00:25:33;;;;;;;26.58;14.25;;;7.20;99.90;;;;;;7402884;19;19919;-80
2023/04/16 00:28:02;;;;;;;25.08;14.05;;;7.10;99.90;;;;;;7403091;19;19927;-80
2023/04/16 00:30:31;;;;;;;30.58;13.75;;;8.40;99.90;;;;;;7403178;19;19918;-80
2023/04/16 00:33:04;;;;;;;24.73;13.65;;;7.30;99.90;;;;;;7401526;19;19915;-80
2023/04/16 00:35:33;;;;;;;30.35;14.57;;;7.30;99.90;;;;;;7401134;19;19933;-79
2023/04/16 00:38:02;;;;;;;25.35;14.18;;;7.20;99.90;;;;;;7401084;19;19918;-79
2023/04/16 00:40:33;;;;;;;24.58;13.70;;;7.10;99.90;;;;;;7402639;19;19922;-79
2023/04/16 00:43:02;;;;;;;23.92;14.00;;;7.20;99.90;;;;;;7401656;19;19929;-80
2023/04/16 00:45:31;;;;;;;26.05;14.30;;;7.10;99.90;;;;;;7403499;19;19935;-80
2023/04/16 00:48:00;;;;;;;28.40;14.18;;;7.20;99.90;;;;;;7402533;19;19949;-79
2023/04/16 00:50:29;;;;;;;27.55;15.10;;;7.10;99.90;;;;;;7399784;19;20348;-81
2023/04/16 00:52:59;;;;;;;22.90;13.00;;;7.10;99.90;;;;;;7403069;19;19929;-79
2023/04/16 00:55:27;;;;;;;27.35;13.38;;;7.10;99.90;;;;;;7402773;19;19925;-80
2023/04/16 00:57:59;;;;;;;28.20;13.65;;;7.00;99.90;;;;;;7403582;19;20615;-79
2023/04/16 01:00:28;;;;;;;26.00;13.07;;;7.00;99.90;;;;;;7401604;19;19933;-79
2023/04/16 01:02:57;;;;;;;29.73;12.95;;;7.00;99.90;;;;;;7400741;19;19922;-78
2023/04/16 01:05:26;;;;;;;30.08;14.38;;;7.00;99.90;;;;;;7402182;19;19919;-78
2023/04/16 01:07:55;;;;;;;26.23;12.95;;;7.10;99.90;;;;;;7401621;19;19919;-80
2023/04/16 01:10:24;;;;;;;25.77;14.30;;;7.10;99.90;;;;;;7400918;19;19922;-79
2023/04/16 01:12:53;;;;;;;29.70;13.45;;;7.00;99.90;;;;;;7402042;19;19933;-80
2023/04/16 01:15:24;;;;;;;23.25;13.98;;;7.00;99.90;;;;;;7402162;19;19922;-80
2023/04/16 01:17:53;;;;;;;23.52;13.23;;;7.00;99.90;;;;;;7403457;19;19926;-80
2023/04/16 01:20:22;;;;;;;26.63;12.43;;;7.00;99.90;;;;;;7401360;19;19922;-79
2023/04/16 01:22:54;;;;;;;30.23;13.52;;;7.00;99.90;;;;;;7400862;19;19914;-80
2023/04/16 01:25:22;;;;;;;27.08;13.13;;;7.00;99.90;;;;;;7401958;19;19922;-79
2023/04/16 01:27:53;;;;;;;26.90;12.82;;;7.00;99.90;;;;;;7400921;19;19918;-79
2023/04/16 01:30:22;;;;;;;28.33;12.45;;;6.90;99.90;;;;;;7403417;19;20352;-80
2023/04/16 01:32:51;;;;;;;33.15;13.23;;;6.90;99.90;;;;;;7400084;19;19930;-79
2023/04/16 01:35:21;;;;;;;31.05;13.40;;;7.00;99.90;;;;;;7402367;19;20017;-80
2023/04/16 01:37:54;;;;;;;33.50;14.95;;;6.80;99.90;;;;;;7399787;19;19959;-80
2023/04/16 01:40:23;;;;;;;40.75;14.98;;;7.00;99.90;;;;;;7396636;19;19932;-79
2023/04/16 01:42:52;;;;;;;42.20;14.82;;;6.80;99.90;;;;;;7398991;19;19921;-79
2023/04/16 01:45:21;;;;;;;36.78;15.07;;;7.00;99.90;;;;;;7400117;19;20253;-79
2023/04/16 01:47:51;;;;;;;39.67;15.60;;;6.90;99.90;;;;;;7397853;19;19922;-78
2023/04/16 01:50:21;;;;;;;42.05;15.40;;;6.90;99.90;;;;;;7399114;19;19919;-79
2023/04/16 01:52:50;;;;;;;40.22;16.40;;;6.90;99.90;;;;;;7396174;19;20007;-80
2023/04/16 01:55:21;;;;;;;38.83;14.13;;;7.30;99.90;;;;;;7401089;19;20350;-79
2023/04/16 01:57:50;;;;;;;39.97;15.77;;;6.80;99.90;;;;;;7398834;19;19926;-80
2023/04/16 02:00:19;;;;;;;40.97;15.75;;;6.80;99.90;;;;;;7398257;19;19927;-80
2023/04/16 02:02:48;;;;;;;35.42;15.35;;;6.90;99.90;;;;;;7400453;19;19929;-79
2023/04/16 02:05:17;;;;;;;30.73;14.43;;;6.90;99.90;;;;;;7401168;19;19934;-80
2023/04/16 02:07:46;;;;;;;40.08;15.60;;;6.80;99.90;;;;;;7399033;19;19926;-79
2023/04/16 02:10:15;;;;;;;34.90;14.45;;;7.40;99.90;;;;;;7398456;19;19933;-79
2023/04/16 02:12:47;;;;;;;33.58;14.68;;;7.10;99.90;;;;;;7397082;19;20215;-79
2023/04/16 02:15:16;;;;;;;28.52;14.85;;;6.80;99.90;;;;;;7399548;19;19930;-79
2023/04/16 02:17:47;;;;;;;33.58;14.25;;;7.00;99.90;;;;;;7399264;19;19954;-79
2023/04/16 02:20:16;;;;;;;40.78;14.80;;;7.00;99.90;;;;;;7400063;19;20352;-79
2023/04/16 02:22:45;;;;;;;33.67;13.70;;;6.90;99.90;;;;;;7398412;19;20017;-79
2023/04/16 02:25:15;;;;;;;34.92;14.13;;;7.00;99.90;;;;;;7396358;19;19928;-79
2023/04/16 02:27:47;;;;;;;34.65;14.00;;;7.10;99.90;;;;;;7400153;19;19926;-78
2023/04/16 02:30:16;;;;;;;28.13;14.75;;;7.00;99.90;;;;;;7399383;19;19926;-79
2023/04/16 02:32:45;;;;;;;25.95;13.80;;;7.80;99.90;;;;;;7397294;19;19922;-79
2023/04/16 02:35:14;;;;;;;31.52;14.32;;;7.30;99.90;;;;;;7395760;19;20279;-78
2023/04/16 02:37:44;;;;;;;27.80;13.77;;;7.10;99.90;;;;;;7397734;19;19922;-79
2023/04/16 02:40:13;;;;;;;32.92;14.70;;;7.20;99.90;;;;;;7399182;19;19923;-79
2023/04/16 02:42:42;;;;;;;31.75;13.20;;;7.10;99.90;;;;;;7398304;19;19919;-79
2023/04/16 02:45:14;;;;;;;36.85;14.00;;;7.10;99.90;;;;;;7398230;19;19921;-79
2023/04/16 02:47:44;;;;;;;33.47;13.90;;;7.10;99.90;;;;;;7401334;19;19926;-79
2023/04/16 02:50:13;;;;;;;30.92;13.98;;;7.00;99.90;;;;;;7400663;19;20334;-78
2023/04/16 02:52:42;;;;;;;23.35;13.07;;;7.00;99.90;;;;;;7402974;19;19922;-79
2023/04/16 02:55:13;;;;;;;33.25;14.13;;;7.20;99.90;;;;;;7406040;19;19915;-79
2023/04/16 02:57:42;;;;;;;28.60;14.13;;;6.90;99.90;;;;;;7405610;19;19992;-78
2023/04/16 03:00:14;;;;;;;31.73;13.52;;;7.20;99.90;;;;;;7405146;19;19938;-78
2023/04/16 03:02:43;;;;;;;28.23;13.57;;;6.90;99.90;;;;;;7405778;19;19918;-79
2023/04/16 03:05:13;;;;;;;26.95;13.20;;;7.00;99.90;;;;;;7407708;19;19925;-79
2023/04/16 03:07:42;;;;;;;27.77;14.13;;;7.30;99.90;;;;;;7406778;19;19914;-79
2023/04/16 03:10:12;;;;;;;22.35;12.38;;;8.10;99.90;;;;;;7405896;19;19926;-79
2023/04/16 03:12:41;;;;;;;33.90;14.60;;;7.00;99.90;;;;;;7401254;19;19929;-79
2023/04/16 03:15:13;;;;;;;25.95;13.18;;;7.10;99.90;;;;;;7404339;19;19929;-80
2023/04/16 03:17:42;;;;;;;24.30;13.60;;;6.90;99.90;;;;;;7404254;19;19974;-80
2023/04/16 03:20:13;;;;;;;23.67;13.98;;;6.90;99.90;;;;;;7405285;19;19918;-80
2023/04/16 03:22:42;;;;;;;29.98;14.43;;;6.80;99.90;;;;;;7405184;19;19915;-80
2023/04/16 03:25:11;;;;;;;26.95;13.30;;;6.90;99.90;;;;;;7406703;19;19994;-79
2023/04/16 03:27:40;;;;;;;28.73;14.27;;;6.90;99.90;;;;;;7405635;19;19929;-80
2023/04/16 03:30:12;;;;;;;31.23;14.02;;;6.80;99.90;;;;;;7407159;19;19939;-78
2023/04/16 03:32:44;;;;;;;26.98;14.25;;;6.90;99.90;;;;;;7403124;19;19918;-79
2023/04/16 03:35:13;;;;;;;;;;;6.80;99.90;;;;;;7404659;19;19922;-78
2023/04/16 03:37:42;;;;;;;25.55;12.48;;;6.90;99.90;;;;;;7403883;19;20249;-79
2023/04/16 03:40:12;;;;;;;23.13;11.90;;;6.90;99.90;;;;;;7404341;19;19925;-79
2023/04/16 03:42:41;;;;;;;25.42;12.60;;;6.90;99.90;;;;;;7403277;19;19931;-79
2023/04/16 03:45:10;;;;;;;25.35;13.50;;;7.00;99.90;;;;;;7403774;19;19933;-80
2023/04/16 03:47:39;;;;;;;23.70;13.95;;;6.90;99.90;;;;;;7405524;19;19918;-79
2023/04/16 03:50:13;;;;;;;24.95;14.15;;;7.00;99.90;;;;;;7403378;19;19982;-79
2023/04/16 03:52:41;;;;;;;26.52;13.85;;;7.00;99.90;;;;;;7400743;19;20270;-79
2023/04/16 03:55:11;;;;;;;23.77;14.27;;;8.00;99.90;;;;;;7405303;19;20382;-79
2023/04/16 03:57:40;;;;;;;25.77;13.77;;;7.00;99.90;;;;;;7403938;19;19923;-79
2023/04/16 04:00:10;;;;;;;24.80;13.45;;;7.50;99.90;;;;;;7402938;19;20343;-79
2023/04/16 04:02:39;;;;;;;24.55;13.60;;;7.00;99.90;;;;;;7402944;19;20364;-78
2023/04/16 04:05:11;;;;;;;28.38;14.30;;;7.20;99.90;;;;;;7402714;19;19928;-79
2023/04/16 04:07:40;;;;;;;26.40;13.23;;;7.00;99.90;;;;;;7402312;19;19923;-78
2023/04/16 04:10:10;;;;;;;27.00;14.48;;;7.80;99.90;;;;;;7403039;19;20280;-79
2023/04/16 04:12:39;;;;;;;30.10;14.77;;;7.00;99.90;;;;;;7399376;19;19918;-79
2023/04/16 04:15:10;;;;;;;26.20;13.70;;;7.00;99.90;;;;;;7405420;19;20329;-79
2023/04/16 04:17:39;;;;;;;23.30;14.00;;;6.90;99.90;;;;;;7403275;19;19919;-78
2023/04/16 04:20:12;;;;;;;27.30;13.82;;;7.00;99.90;;;;;;7402883;19;20352;-79
2023/04/16 04:22:41;;;;;;;25.48;13.80;;;7.00;99.90;;;;;;7403245;19;19919;-80
2023/04/16 04:25:11;;;;;;;20.95;13.63;;;7.30;99.90;;;;;;7403526;19;19919;-80
2023/04/16 04:27:40;;;;;;;25.38;13.90;;;7.00;99.90;;;;;;7403978;19;19922;-80
2023/04/16 04:30:11;;;;;;;22.05;12.88;;;7.20;99.90;;;;;;7402746;19;19922;-79
2023/04/16 04:32:40;;;;;;;24.92;13.10;;;6.90;99.90;;;;;;7401777;19;19926;-79
2023/04/16 04:35:12;;;;;;;21.10;13.10;;;7.10;99.90;;;;;;7400558;19;20364;-79
2023/04/16 04:37:41;;;;;;;26.67;13.68;;;7.10;99.90;;;;;;7402365;19;19937;-80
2023/04/16 04:40:11;;;;;;;21.40;13.50;;;7.40;99.90;;;;;;7401867;19;19974;-79
2023/04/16 04:42:41;;;;;;;21.77;12.18;;;7.00;99.90;;;;;;7402191;19;19925;-79
2023/04/16 04:45:11;;;;;;;23.40;13.27;;;7.40;99.90;;;;;;7402525;19;19929;-79
2023/04/16 04:47:40;;;;;;;25.65;15.80;;;7.00;99.90;;;;;;7402412;19;19921;-80
2023/04/16 04:50:12;;;;;;;23.08;14.93;;;7.50;99.90;;;;;;7399206;19;19926;-80
2023/04/16 04:52:41;;;;;;;;;;;7.00;99.90;;;;;;7405672;19;19914;-79
2023/04/16 04:55:11;;;;;;;22.85;12.95;;;7.10;99.90;;;;;;7400046;19;20352;-79
2023/04/16 04:57:40;;;;;;;27.77;13.65;;;7.00;99.90;;;;;;7402654;19;19953;-79
2023/04/16 05:00:10;;;;;;;19.98;12.60;;;6.90;99.90;;;;;;7401686;19;20494;-80
2023/04/16 05:02:40;;;;;;;21.35;13.55;;;7.00;99.90;;;;;;7400363;19;19934;-80
2023/04/16 05:05:12;;;;;;;28.55;19.80;;;7.00;99.90;;;;;;7401700;19;19950;-79
2023/04/16 05:07:40;;;;;;;32.80;16.33;;;6.90;99.90;;;;;;7398674;19;19918;-79
2023/04/16 05:10:11;;;;;;;27.58;14.40;;;7.90;99.90;;;;;;7401112;19;19919;-79
2023/04/16 05:12:40;;;;;;;25.80;14.73;;;6.80;99.90;;;;;;7401324;19;19952;-79
2023/04/16 05:15:10;;;;;;;26.05;12.52;;;6.90;99.90;;;;;;7398684;19;19922;-80
2023/04/16 05:17:39;;;;;;;21.75;13.52;;;7.00;99.90;;;;;;7401995;19;19988;-80
2023/04/16 05:20:12;;;;;;;21.83;12.43;;;6.90;99.90;;;;;;7401709;19;19929;-79
2023/04/16 05:22:41;;;;;;;27.70;14.63;;;6.90;99.90;;;;;;7403070;19;19970;-79
2023/04/16 05:25:11;;;;;;;23.08;13.90;;;7.00;99.90;;;;;;7402203;19;19922;-80
2023/04/16 05:27:40;;;;;;;25.40;13.40;;;7.10;99.90;;;;;;7401230;19;19935;-80
2023/04/16 05:30:10;;;;;;;24.33;13.88;;;7.00;99.90;;;;;;7401902;19;19926;-80
2023/04/16 05:32:41;;;;;;;25.35;14.30;;;7.10;99.90;;;;;;7401434;19;19918;-79
2023/04/16 05:35:13;;;;;;;27.25;14.63;;;7.10;99.90;;;;;;7401275;19;19923;-79
2023/04/16 05:37:42;;;;;;;29.83;15.30;;;7.10;99.90;;;;;;7400750;19;19930;-79
2023/04/16 05:40:14;;;;;;;21.67;14.23;;;7.20;99.90;;;;;;7400507;19;19923;-80
2023/04/16 05:42:43;;;;;;;26.63;14.13;;;7.20;99.90;;;;;;7398887;19;19907;-80
2023/04/16 05:45:13;;;;;;;25.40;14.70;;;7.30;99.90;;;;;;7401262;19;19922;-79
2023/04/16 05:47:42;;;;;;;24.48;13.80;;;7.30;99.90;;;;;;7398883;19;20445;-80
2023/04/16 05:50:13;;;;;;;22.05;14.25;;;7.30;99.90;;;;;;7398435;19;19923;-80
2023/04/16 05:52:42;;;;;;;23.05;15.85;;;7.40;99.90;;;;;;7397510;19;19936;-80
2023/04/16 05:55:12;;;;;;;22.63;14.90;;;7.40;99.90;;;;;;7399851;19;20395;-79
2023/04/16 05:57:41;;;;;;;26.85;15.55;;;7.50;99.90;;;;;;7398969;19;19926;-79
2023/04/16 06:00:10;;;;;;;27.25;16.77;;;8.00;99.90;;;;;;7397977;19;19941;-80
2023/04/16 06:02:39;;;;;;;20.08;13.90;;;7.30;99.90;;;;;;7398492;19;19926;-79
2023/04/16 06:05:09;;;;;;;27.67;15.23;;;7.50;99.90;;;;;;7397109;19;19933;-79
2023/04/16 06:07:40;;;;;;;28.35;15.65;;;7.40;99.90;;;;;;7399950;19;19926;-80
2023/04/16 06:10:10;;;;;;;25.75;14.43;;;7.40;99.90;;;;;;7400811;19;19925;-79
2023/04/16 06:12:39;;;;;;;29.67;17.88;;;7.50;99.90;;;;;;7398579;19;19918;-79
2023/04/16 06:15:09;;;;;;;25.88;14.32;;;8.10;99.90;;;;;;7399771;19;20235;-79
2023/04/16 06:17:38;;;;;;;22.98;14.60;;;7.40;99.90;;;;;;7400822;19;19922;-79
2023/04/16 06:20:09;;;;;;;23.52;14.30;;;7.40;99.90;;;;;;7399882;19;19933;-80
2023/04/16 06:22:40;;;;;;;24.95;14.30;;;7.60;99.90;;;;;;7397956;19;20257;-79
2023/04/16 06:25:10;;;;;;;29.15;14.63;;;7.60;99.90;;;;;;7399810;19;19926;-79
2023/04/16 06:27:39;;;;;;;22.05;14.15;;;7.50;99.90;;;;;;7403840;19;19927;-79
2023/04/16 06:30:14;;;;;;;25.92;13.70;;;7.60;99.90;;;;;;7405007;19;19933;-78
2023/04/16 06:32:44;;;;;;;21.40;13.25;;;7.60;99.90;;;;;;7404457;19;19945;-79
2023/04/16 06:35:13;;;;;;;20.38;12.13;;;7.60;99.90;;;;;;7402737;19;20621;-78
2023/04/16 06:37:45;;;;;;;23.17;13.80;;;7.70;99.90;;;;;;7405105;19;19958;-79
2023/04/16 06:40:14;;;;;;;23.58;15.98;;;7.70;99.90;;;;;;7407723;19;19930;-78
2023/04/16 06:42:44;;;;;;;25.00;14.55;;;7.60;99.90;;;;;;7406223;19;19921;-78
2023/04/16 06:45:14;;;;;;;27.20;14.50;;;7.70;99.90;;;;;;7404368;19;19919;-79
2023/04/16 06:47:43;;;;;;;20.77;13.70;;;7.60;99.90;;;;;;7406365;19;19942;-79
2023/04/16 06:50:13;;;;;;;25.83;14.23;;;7.70;99.90;;;;;;7404956;19;19929;-78
2023/04/16 06:52:45;;;;;;;23.52;14.00;;;7.70;99.90;;;;;;7403676;19;20336;-79
2023/04/16 06:55:13;;;;;;;;;;;9.00;99.90;;;;;;7408369;19;19939;-79
2023/04/16 06:57:42;;;;;;;21.08;13.85;;;8.90;99.90;;;;;;7404270;19;19943;-79
2023/04/16 07:00:12;;;;;;;23.85;13.15;;;7.90;99.90;;;;;;7404693;19;19918;-79
2023/04/16 07:02:41;;;;;;;24.98;14.30;;;7.80;99.90;;;;;;7404322;19;19918;-79
2023/04/16 07:05:11;;;;;;;22.90;13.45;;;7.80;99.90;;;;;;7406606;19;19926;-79
2023/04/16 07:07:39;;;;;;;24.35;14.18;;;7.90;99.90;;;;;;7403259;19;19922;-79
2023/04/16 07:10:12;;;;;;;22.40;13.40;;;8.00;99.90;;;;;;7404685;19;19982;-79
2023/04/16 07:12:41;;;;;;;23.05;14.13;;;8.00;99.90;;;;;;7405385;19;19923;-79
2023/04/16 07:15:11;;;;;;;25.48;14.38;;;7.90;99.90;;;;;;7405067;19;19918;-79
2023/04/16 07:17:40;;;;;;;24.50;14.77;;;8.20;99.90;;;;;;7406199;19;19918;-79
2023/04/16 07:20:11;;;;;;;23.48;13.18;;;8.10;99.90;;;;;;7404587;19;19979;-79
2023/04/16 07:22:40;;;;;;;24.00;13.63;;;8.10;99.90;;;;;;7405623;19;19942;-79
2023/04/16 07:25:12;;;;;;;23.98;14.00;;;8.30;99.90;;;;;;7403456;19;19919;-79
2023/04/16 07:27:41;;;;;;;23.33;13.02;;;8.20;99.90;;;;;;7405351;19;19919;-80
2023/04/16 07:30:10;;;;;;;23.13;13.63;;;8.30;99.90;;;;;;7404149;19;19923;-78
2023/04/16 07:32:39;;;;;;;24.42;16.40;;;8.30;99.90;;;;;;7404474;19;20292;-79
2023/04/16 07:35:09;;;;;;;22.95;13.98;;;8.30;99.90;;;;;;7402959;19;19928;-79
2023/04/16 07:37:38;;;;;;;24.25;13.43;;;8.30;99.90;;;;;;7401913;19;19921;-79
2023/04/16 07:40:11;;;;;;;22.08;13.57;;;8.30;99.90;;;;;;7389357;19;20383;-79
2023/04/16 07:42:40;;;;;;;24.20;13.07;;;8.30;99.90;;;;;;7395540;19;19923;-79
2023/04/16 07:45:11;;;;;;;22.52;12.95;;;8.40;99.90;;;;;;7395997;19;19929;-79
2023/04/16 07:47:40;;;;;;;20.60;13.18;;;8.50;99.90;;;;;;7396117;19;19927;-79
2023/04/16 07:50:10;;;;;;;23.42;13.32;;;8.90;99.90;;;;;;7390599;19;19959;-79
2023/04/16 07:52:41;;;;;;;25.38;11.82;;;8.80;99.90;;;;;;7397751;19;19918;-79
2023/04/16 07:55:13;;;;;;;24.10;12.00;;;8.80;99.90;;;;;;7390800;19;19929;-80
2023/04/16 07:57:42;;;;;;;22.65;12.82;;;8.80;99.90;;;;;;7395867;19;19989;-79
2023/04/16 08:00:12;;;;;;;22.23;12.25;;;8.90;99.90;;;;;;7395076;19;20481;-80
2023/04/16 08:02:41;;;;;;;18.90;11.63;;;9.00;99.90;;;;;;7394928;19;19922;-79
2023/04/16 08:05:11;;;;;;;23.40;11.20;;;9.10;99.90;;;;;;7393678;19;20474;-79
2023/04/16 08:07:40;;;;;;;21.98;12.80;;;9.20;99.90;;;;;;7393479;19;19918;-79
2023/04/16 08:10:13;;;;;;;20.83;10.95;;;9.20;99.90;;;;;;7391501;19;19922;-79
2023/04/16 08:12:42;;;;;;;22.38;12.23;;;9.40;99.90;;;;;;7392601;19;20268;-79
2023/04/16 08:15:12;;;;;;;21.90;11.38;;;9.30;99.90;;;;;;7394496;19;19922;-79
2023/04/16 08:17:40;;;;;;;18.98;11.20;;;9.40;99.90;;;;;;7390485;19;20027;-79
2023/04/16 08:20:10;;;;;;;22.05;13.15;;;9.40;99.90;;;;;;7393318;19;20000;-80
2023/04/16 08:22:39;;;;;;;21.23;11.07;;;9.40;99.90;;;;;;7392629;19;19929;-79
2023/04/16 08:25:10;;;;;;;16.45;9.68;;;9.40;99.90;;;;;;7392860;19;19923;-78
2023/04/16 08:27:41;;;;;;;20.50;11.82;;;9.50;99.90;;;;;;7393263;19;20467;-80
2023/04/16 08:30:11;;;;;;;16.90;11.05;;;9.60;99.90;;;;;;7385920;19;19952;-79
2023/04/16 08:32:40;;;;;;;17.55;10.95;;;9.70;99.90;;;;;;7390549;19;19955;-80
2023/04/16 08:35:09;;;;;;;20.38;11.50;;;9.70;99.90;;;;;;7397783;19;20344;-79
2023/04/16 08:37:38;;;;;;;16.92;10.52;;;9.70;99.90;;;;;;7400446;19;19929;-81
2023/04/16 08:40:09;;;;;;;18.25;10.07;;;9.90;99.90;;;;;;7396960;19;19922;-80
2023/04/16 08:42:47;;;;;;;16.40;10.45;;;10.10;99.90;;;;;;7403785;19;19911;-81
2023/04/16 08:45:19;;;;;;;19.50;10.88;;;10.10;99.90;;;;;;7403476;19;20269;-81
2023/04/16 08:47:49;;;;;;;23.38;12.18;;;9.90;99.90;;;;;;7403627;19;19934;-81
2023/04/16 08:50:20;;;;;;;18.63;11.88;;;10.20;99.90;;;;;;7405668;19;19919;-83
2023/04/16 08:52:54;;;;;;;20.00;10.60;;;10.10;99.90;;;;;;7402921;19;19939;-80
2023/04/16 08:55:28;;;;;;;18.25;10.05;;;10.20;99.90;;;;;;7396145;19;19929;-80
2023/04/16 08:58:01;;;;;;;23.02;9.48;;;10.30;99.90;;;;;;7397494;19;19923;-80
2023/04/16 09:00:33;;;;;;;17.25;9.85;;;10.20;99.90;;;;;;7397714;19;19922;-79
2023/04/16 09:03:02;;;;;;;18.10;10.65;;;10.20;99.90;;;;;;7398623;19;20144;-81
2023/04/16 09:05:31;;;;;;;18.08;11.43;;;10.30;99.90;;;;;;7398542;19;19925;-80
2023/04/16 09:08:00;;;;;;;17.70;10.75;;;10.50;99.90;;;;;;7396510;19;19929;-80
2023/04/16 09:10:29;;;;;;;17.48;9.68;;;10.50;99.90;;;;;;7400584;19;19926;-80
2023/04/16 09:13:01;;;;;;;19.92;10.88;;;10.60;99.90;;;;;;7401258;19;19922;-79
2023/04/16 09:15:30;;;;;;;19.48;10.13;;;10.60;99.90;;;;;;7396181;19;19925;-80
2023/04/16 09:17:59;;;;;;;18.45;10.00;;;10.70;99.90;;;;;;7399406;19;19991;-80
2023/04/16 09:20:28;;;;;;;16.23;10.35;;;10.70;99.90;;;;;;7398458;19;19938;-80
2023/04/16 09:22:58;;;;;;;14.27;8.88;;;10.80;99.90;;;;;;7396198;19;19926;-80
2023/04/16 09:25:27;;;;;;;18.20;9.40;;;10.70;99.90;;;;;;7395541;19;19922;-79
2023/04/16 09:27:56;;;;;;;15.63;9.55;;;10.90;99.90;;;;;;7396824;19;19915;-79
2023/04/16 09:30:30;;;;;;;15.77;10.05;;;10.90;99.90;;;;;;7395785;19;19915;-79
2023/04/16 09:33:15;;;;;;;18.25;9.82;;;10.90;99.90;;;;;;7394198;19;19919;-81
2023/04/16 09:35:48;;;;;;;17.13;10.10;;;11.00;99.90;;;;;;7396736;19;19926;-81
2023/04/16 09:38:18;;;;;;;18.63;9.80;;;11.20;99.90;;;;;;7395177;19;19919;-80
2023/04/16 09:40:47;;;;;;;16.08;9.63;;;10.90;99.90;;;;;;7396418;19;19926;-80
2023/04/16 09:43:18;;;;;;;15.68;9.75;;;11.20;99.90;;;;;;7385589;19;19932;-79
2023/04/16 09:45:54;;;;;;;15.77;9.85;;;11.30;99.90;;;;;;7396235;19;19926;-80
2023/04/16 09:48:31;;;;;;;15.30;9.18;;;11.40;99.90;;;;;;7395911;19;19937;-79
2023/04/16 09:51:01;;;;;;;18.02;9.57;;;11.40;99.90;;;;;;7396065;19;19929;-79
2023/04/16 09:53:31;;;;;;;16.17;9.95;;;11.60;99.90;;;;;;7394413;19;19947;-80
2023/04/16 09:56:01;;;;;;;15.45;9.25;;;11.60;99.90;;;;;;7397287;19;19965;-79
2023/04/16 09:58:30;;;;;;;18.00;9.75;;;11.70;99.90;;;;;;7390244;19;19915;-79
2023/04/16 10:01:07;;;;;;;17.05;9.85;;;11.90;99.90;;;;;;7393692;19;19926;-80
2023/04/16 10:03:37;;;;;;;15.32;9.80;;;11.90;99.90;;;;;;7400397;19;19926;-79
2023/04/16 10:06:11;;;;;;;14.70;10.45;;;11.90;99.90;;;;;;7401320;19;19923;-80
2023/04/16 10:08:45;;;;;;;17.67;10.02;;;11.90;99.90;;;;;;7401450;19;19915;-79
2023/04/16 10:11:14;;;;;;;19.95;9.18;;;12.20;99.90;;;;;;7399634;19;19933;-79
2023/04/16 10:13:43;;;;;;;13.82;9.20;;;12.10;99.90;;;;;;7400180;19;20393;-79
2023/04/16 10:16:15;;;;;;;18.05;9.85;;;12.20;99.90;;;;;;7403414;19;20010;-78
2023/04/16 10:18:45;;;;;;;15.52;8.65;;;12.30;99.90;;;;;;7396549;19;19922;-80
2023/04/16 10:21:15;;;;;;;15.30;9.23;;;12.10;99.90;;;;;;7399160;19;19939;-80
2023/04/16 10:23:45;;;;;;;17.13;9.43;;;12.10;99.90;;;;;;7396339;19;19952;-78
2023/04/16 10:26:15;;;;;;;14.90;9.55;;;12.10;99.90;;;;;;7399908;19;19923;-80
2023/04/16 10:28:44;;;;;;;15.93;11.13;;;12.00;99.90;;;;;;7404625;19;19994;-80
2023/04/16 10:31:16;;;;;;;17.52;10.27;;;12.00;99.90;;;;;;7401943;19;19921;-79
2023/04/16 10:33:45;;;;;;;;;;;11.90;99.90;;;;;;7406458;19;19926;-79
2023/04/16 10:36:16;;;;;;;19.10;10.35;;;12.10;99.90;;;;;;7402894;19;20332;-80
2023/04/16 10:38:49;;;;;;;17.58;9.20;;;12.20;99.90;;;;;;7399145;19;19923;-79
2023/04/16 10:41:18;;;;;;;17.67;9.32;;;12.30;99.90;;;;;;7400131;19;19926;-79
2023/04/16 10:43:49;;;;;;;16.75;12.30;;;12.30;99.90;;;;;;7405249;19;19923;-78
2023/04/16 10:46:22;;;;;;;;;;;12.40;99.90;;;;;;7404926;19;19990;-78
2023/04/16 10:48:54;;;;;;;15.88;9.30;;;12.60;99.90;;;;;;7383136;19;20256;-80
2023/04/16 10:51:31;;;;;;;16.45;9.82;;;12.40;99.90;;;;;;7402469;19;19919;-81
2023/04/16 10:54:05;;;;;;;17.38;9.70;;;12.50;99.90;;;;;;7402124;19;20384;-78
2023/04/16 10:56:35;;;;;;;16.35;9.55;;;12.60;99.90;;;;;;7406585;19;19923;-79
2023/04/16 10:59:07;;;;;;;15.68;9.85;;;12.70;99.90;;;;;;7403312;19;19927;-78
2023/04/16 11:01:40;;;;;;;15.55;9.45;;;12.90;99.90;;;;;;7401092;19;20359;-77
2023/04/16 11:04:31;;;;;;;17.75;9.75;;;12.80;99.90;;;;;;7394895;19;19930;-78
2023/04/16 11:07:08;;;;;;;17.48;9.82;;;12.90;99.90;;;;;;7396742;19;19918;-76
2023/04/16 11:09:54;;;;;;;16.20;10.40;;;12.90;99.90;;;;;;7398372;19;19918;-77
2023/04/16 11:12:26;;;;;;;13.35;9.57;;;12.90;99.90;;;;;;7397731;19;20297;-77
2023/04/16 11:14:56;;;;;;;15.27;9.85;;;13.00;99.90;;;;;;7393465;19;19914;-78
2023/04/16 11:17:31;;;;;;;17.60;10.05;;;13.00;99.90;;;;;;7396910;19;19922;-78
2023/04/16 11:20:00;;;;;;;15.50;9.15;;;13.00;99.90;;;;;;7374162;19;19922;-77
2023/04/16 11:22:30;;;;;;;18.23;10.23;;;13.30;99.90;;;;;;7399362;19;19931;-78
2023/04/16 11:24:59;;;;;;;13.70;9.30;;;13.20;99.90;;;;;;7398164;19;19922;-76
2023/04/16 11:27:28;;;;;;;17.52;9.57;;;13.30;99.90;;;;;;7398907;19;19918;-77
2023/04/16 11:30:04;;;;;;;15.38;9.25;;;13.40;99.90;;;;;;7398709;19;19950;-80
2023/04/16 11:32:37;;;;;;;13.77;8.75;;;13.20;99.90;;;;;;7398312;19;19922;-76
2023/04/16 11:35:18;;;;;;;19.60;10.13;;;12.90;99.90;;;;;;7396457;19;19918;-74
2023/04/16 11:37:48;;;;;;;13.50;8.48;;;13.00;99.90;;;;;;7397730;19;19922;-73
2023/04/16 11:40:17;;;;;;;15.70;9.43;;;12.30;99.90;;;;;;7397866;19;20947;-74
2023/04/16 11:42:46;;;;;;;17.30;9.73;;;13.00;99.90;;;;;;7397763;19;19939;-74
2023/04/16 11:45:18;;;;;;;16.55;9.02;;;13.00;99.90;;;;;;7399880;19;19923;-74
2023/04/16 11:47:52;;;;;;;17.65;9.80;;;13.10;99.90;;;;;;7396802;19;19922;-78
2023/04/16 11:50:22;;;;;;;18.85;9.65;;;13.10;99.90;;;;;;7401870;19;19925;-78
2023/04/16 11:52:52;;;;;;;15.95;10.43;;;13.00;99.90;;;;;;7400560;19;20086;-78
2023/04/16 11:55:22;;;;;;;17.30;10.48;;;12.90;99.90;;;;;;7393093;19;19926;-78
2023/04/16 11:57:51;;;;;;;16.73;9.68;;;12.80;99.90;;;;;;7395533;19;20372;-79
2023/04/16 12:00:21;;;;;;;19.90;10.88;;;12.90;99.90;;;;;;7397852;19;19923;-77
2023/04/16 12:02:55;;;;;;;19.17;10.77;;;12.80;99.90;;;;;;7397552;19;20423;-78
2023/04/16 12:05:32;;;;;;;17.05;11.07;;;12.70;99.90;;;;;;7402079;19;20273;-79
2023/04/16 12:08:03;;;;;;;18.85;10.82;;;12.80;99.90;;;;;;7400516;19;19923;-76
2023/04/16 12:10:34;;;;;;;22.27;10.63;;;12.80;99.90;;;;;;7398785;19;20306;-76
2023/04/16 12:13:14;;;;;;;20.67;12.05;;;12.60;99.90;;;;;;7400526;19;19918;-76
2023/04/16 12:15:47;;;;;;;20.80;11.52;;;12.50;99.90;;;;;;7394885;19;20019;-75
2023/04/16 12:18:21;;;;;;;19.52;9.98;;;12.60;99.90;;;;;;7395411;19;19943;-75
2023/04/16 12:20:50;;;;;;;19.88;10.98;;;12.60;99.90;;;;;;7397769;19;19938;-74
2023/04/16 12:23:27;;;;;;;21.42;12.00;;;12.70;99.90;;;;;;7396960;19;19918;-78
2023/04/16 12:25:58;;;;;;;26.25;10.82;;;12.50;99.90;;;;;;7396247;19;19939;-78
2023/04/16 12:28:32;;;;;;;20.67;11.13;;;12.30;99.90;;;;;;7398701;19;19923;-78
2023/04/16 12:31:01;;;;;;;22.85;11.27;;;12.40;99.90;;;;;;7398109;19;19966;-77
2023/04/16 12:33:33;;;;;;;21.73;11.63;;;12.50;99.90;;;;;;7399020;19;19978;-76
2023/04/16 12:36:03;;;;;;;24.67;13.95;;;12.80;99.90;;;;;;7396313;19;19911;-76
2023/04/16 12:38:32;;;;;;;18.75;10.20;;;13.00;99.90;;;;;;7398535;19;20449;-79
2023/04/16 12:41:01;;;;;;;17.13;10.80;;;13.30;99.90;;;;;;7395121;19;20407;-79
2023/04/16 12:43:30;;;;;;;18.60;11.63;;;13.50;99.90;;;;;;7394683;19;19923;-79
2023/04/16 12:45:59;;;;;;;18.42;10.52;;;13.80;99.90;;;;;;7394936;19;19933;-79
2023/04/16 12:48:28;;;;;;;17.95;11.75;;;13.70;99.90;;;;;;7393766;19;19933;-84
2023/04/16 12:51:00;;;;;;;21.15;11.20;;;13.70;99.90;;;;;;7393156;19;19933;-79